Keating Summit, Pennsylvania
Current Conditions -  °F | °C
As of 6:53 PM on Wednesday 22 Oct 2014 (Local Time) from KBFD Reporting Station
Haze Haze  
Wind Chill: 33°   Ceiling: 300
Heat Index: 41°   Visibility: 6mi
Dew Point: 38°   Wind: 15mph
Humidity: 89%   Direction: 350°N
Pressure: 30.14"   Gusts: NA
Location:  41.791°N, 78.5153°W
Report Text: KBFD 222253Z AUTO 35013KT 6SM BR OVC003 05/03 A3014 RMK AO2 SLP218 T00500033
Loading
Personal Weather Stations






























Interactive Weather Map
Tropical Storm Tracking
New forecast layout! Learn more

10-Day Weather Forecast

Advertisements
Track Severe Weather on mobile